sensor_id;sensor_type;location;lat;lon;timestamp;P1;durP1;ratioP1;P2;durP2;ratioP2
22034;SDS011;11181;51.002;4.356;2023-02-18T00:00:27;12.87;;;9.17;;
22034;SDS011;11181;51.002;4.356;2023-02-18T00:02:54;10.23;;;8.37;;
22034;SDS011;11181;51.002;4.356;2023-02-18T00:05:21;10.77;;;9.03;;
22034;SDS011;11181;51.002;4.356;2023-02-18T00:07:48;13.30;;;8.83;;
22034;SDS011;11181;51.002;4.356;2023-02-18T00:10:15;12.17;;;8.23;;
22034;SDS011;11181;51.002;4.356;2023-02-18T00:12:42;13.53;;;8.83;;
22034;SDS011;11181;51.002;4.356;2023-02-18T00:15:09;12.40;;;8.83;;
22034;SDS011;11181;51.002;4.356;2023-02-18T00:17:38;12.47;;;8.40;;
22034;SDS011;11181;51.002;4.356;2023-02-18T00:20:05;11.10;;;8.33;;
22034;SDS011;11181;51.002;4.356;2023-02-18T00:22:33;11.50;;;8.00;;
22034;SDS011;11181;51.002;4.356;2023-02-18T00:25:00;11.87;;;7.80;;
22034;SDS011;11181;51.002;4.356;2023-02-18T00:27:27;11.67;;;7.70;;
22034;SDS011;11181;51.002;4.356;2023-02-18T00:29:54;9.73;;;7.57;;
22034;SDS011;11181;51.002;4.356;2023-02-18T00:32:23;11.03;;;7.37;;
22034;SDS011;11181;51.002;4.356;2023-02-18T00:34:51;13.70;;;8.37;;
22034;SDS011;11181;51.002;4.356;2023-02-18T00:37:19;15.70;;;7.97;;
22034;SDS011;11181;51.002;4.356;2023-02-18T00:39:46;9.70;;;7.37;;
22034;SDS011;11181;51.002;4.356;2023-02-18T00:42:13;14.17;;;8.50;;
22034;SDS011;11181;51.002;4.356;2023-02-18T00:44:39;12.00;;;7.63;;
22034;SDS011;11181;51.002;4.356;2023-02-18T00:47:06;10.17;;;7.23;;
22034;SDS011;11181;51.002;4.356;2023-02-18T00:49:34;11.80;;;6.63;;
22034;SDS011;11181;51.002;4.356;2023-02-18T00:52:02;12.27;;;7.77;;
22034;SDS011;11181;51.002;4.356;2023-02-18T00:54:29;11.87;;;7.70;;
22034;SDS011;11181;51.002;4.356;2023-02-18T00:56:56;11.23;;;7.03;;
22034;SDS011;11181;51.002;4.356;2023-02-18T00:59:23;9.07;;;6.10;;
22034;SDS011;11181;51.002;4.356;2023-02-18T01:01:50;12.90;;;7.07;;
22034;SDS011;11181;51.002;4.356;2023-02-18T01:04:17;9.37;;;6.83;;
22034;SDS011;11181;51.002;4.356;2023-02-18T01:06:44;10.17;;;6.70;;
22034;SDS011;11181;51.002;4.356;2023-02-18T01:09:12;8.00;;;5.77;;
22034;SDS011;11181;51.002;4.356;2023-02-18T01:11:39;12.63;;;7.33;;
22034;SDS011;11181;51.002;4.356;2023-02-18T01:14:06;10.77;;;5.87;;
22034;SDS011;11181;51.002;4.356;2023-02-18T01:16:33;9.50;;;6.17;;
22034;SDS011;11181;51.002;4.356;2023-02-18T01:19:00;8.30;;;5.63;;
22034;SDS011;11181;51.002;4.356;2023-02-18T01:21:27;7.93;;;5.53;;
22034;SDS011;11181;51.002;4.356;2023-02-18T01:23:54;9.93;;;5.57;;
22034;SDS011;11181;51.002;4.356;2023-02-18T01:26:23;6.80;;;4.90;;
22034;SDS011;11181;51.002;4.356;2023-02-18T01:28:50;8.40;;;6.10;;
22034;SDS011;11181;51.002;4.356;2023-02-18T01:31:17;8.30;;;5.97;;
22034;SDS011;11181;51.002;4.356;2023-02-18T01:33:44;7.87;;;5.57;;
22034;SDS011;11181;51.002;4.356;2023-02-18T01:36:11;7.23;;;5.20;;
22034;SDS011;11181;51.002;4.356;2023-02-18T01:38:38;10.00;;;4.80;;
22034;SDS011;11181;51.002;4.356;2023-02-18T01:41:05;9.13;;;5.53;;
22034;SDS011;11181;51.002;4.356;2023-02-18T01:43:34;6.73;;;5.10;;
22034;SDS011;11181;51.002;4.356;2023-02-18T01:46:06;7.03;;;4.73;;
22034;SDS011;11181;51.002;4.356;2023-02-18T01:48:39;7.00;;;4.70;;
22034;SDS011;11181;51.002;4.356;2023-02-18T01:51:10;7.47;;;5.00;;
22034;SDS011;11181;51.002;4.356;2023-02-18T01:53:41;6.57;;;4.30;;
22034;SDS011;11181;51.002;4.356;2023-02-18T01:56:13;5.07;;;4.10;;
22034;SDS011;11181;51.002;4.356;2023-02-18T01:58:47;7.03;;;4.37;;
22034;SDS011;11181;51.002;4.356;2023-02-18T02:01:14;5.73;;;3.90;;
22034;SDS011;11181;51.002;4.356;2023-02-18T02:03:41;6.93;;;4.10;;
22034;SDS011;11181;51.002;4.356;2023-02-18T02:06:11;5.37;;;3.20;;
22034;SDS011;11181;51.002;4.356;2023-02-18T02:08:43;4.90;;;3.47;;
22034;SDS011;11181;51.002;4.356;2023-02-18T02:11:19;4.47;;;3.60;;
22034;SDS011;11181;51.002;4.356;2023-02-18T02:13:58;4.77;;;2.73;;
22034;SDS011;11181;51.002;4.356;2023-02-18T02:16:36;4.30;;;2.80;;
22034;SDS011;11181;51.002;4.356;2023-02-18T02:19:14;4.10;;;3.10;;
22034;SDS011;11181;51.002;4.356;2023-02-18T02:25:07;4.57;;;3.20;;
22034;SDS011;11181;51.002;4.356;2023-02-18T02:30:55;4.43;;;3.50;;
22034;SDS011;11181;51.002;4.356;2023-02-18T02:33:47;4.47;;;3.30;;
22034;SDS011;11181;51.002;4.356;2023-02-18T02:36:37;5.57;;;4.07;;
22034;SDS011;11181;51.002;4.356;2023-02-18T02:39:13;5.47;;;3.63;;
22034;SDS011;11181;51.002;4.356;2023-02-18T02:41:49;5.50;;;3.63;;
22034;SDS011;11181;51.002;4.356;2023-02-18T02:44:25;4.70;;;3.33;;
22034;SDS011;11181;51.002;4.356;2023-02-18T02:47:01;6.60;;;3.57;;
22034;SDS011;11181;51.002;4.356;2023-02-18T02:49:36;7.93;;;4.07;;
22034;SDS011;11181;51.002;4.356;2023-02-18T02:52:12;5.33;;;4.03;;
22034;SDS011;11181;51.002;4.356;2023-02-18T02:54:42;5.40;;;3.47;;
22034;SDS011;11181;51.002;4.356;2023-02-18T03:00:07;4.80;;;3.30;;
22034;SDS011;11181;51.002;4.356;2023-02-18T03:02:38;6.80;;;3.93;;
22034;SDS011;11181;51.002;4.356;2023-02-18T03:05:14;6.40;;;3.67;;
22034;SDS011;11181;51.002;4.356;2023-02-18T03:07:59;8.90;;;3.10;;
22034;SDS011;11181;51.002;4.356;2023-02-18T03:10:45;5.20;;;3.30;;
22034;SDS011;11181;51.002;4.356;2023-02-18T03:13:22;4.70;;;3.03;;
22034;SDS011;11181;51.002;4.356;2023-02-18T03:16:00;5.33;;;2.97;;
22034;SDS011;11181;51.002;4.356;2023-02-18T03:18:36;5.23;;;3.20;;
22034;SDS011;11181;51.002;4.356;2023-02-18T03:21:07;4.90;;;2.93;;
22034;SDS011;11181;51.002;4.356;2023-02-18T03:23:38;4.07;;;2.77;;
22034;SDS011;11181;51.002;4.356;2023-02-18T03:26:11;3.77;;;2.57;;
22034;SDS011;11181;51.002;4.356;2023-02-18T03:28:40;6.93;;;3.37;;
22034;SDS011;11181;51.002;4.356;2023-02-18T03:31:08;5.27;;;2.90;;
22034;SDS011;11181;51.002;4.356;2023-02-18T03:33:39;4.87;;;2.77;;
22034;SDS011;11181;51.002;4.356;2023-02-18T03:36:10;3.43;;;2.43;;
22034;SDS011;11181;51.002;4.356;2023-02-18T03:38:39;5.83;;;3.00;;
22034;SDS011;11181;51.002;4.356;2023-02-18T03:41:10;4.47;;;3.03;;
22034;SDS011;11181;51.002;4.356;2023-02-18T03:43:39;7.13;;;4.73;;
22034;SDS011;11181;51.002;4.356;2023-02-18T03:46:06;5.63;;;3.40;;
22034;SDS011;11181;51.002;4.356;2023-02-18T03:48:33;6.73;;;3.70;;
22034;SDS011;11181;51.002;4.356;2023-02-18T03:51:00;7.27;;;3.53;;
22034;SDS011;11181;51.002;4.356;2023-02-18T03:53:27;5.17;;;3.23;;
22034;SDS011;11181;51.002;4.356;2023-02-18T03:55:55;4.70;;;3.27;;
22034;SDS011;11181;51.002;4.356;2023-02-18T03:58:22;4.37;;;2.17;;
22034;SDS011;11181;51.002;4.356;2023-02-18T04:00:49;4.03;;;2.40;;
22034;SDS011;11181;51.002;4.356;2023-02-18T04:03:16;3.60;;;2.10;;
22034;SDS011;11181;51.002;4.356;2023-02-18T04:05:43;2.67;;;1.70;;
22034;SDS011;11181;51.002;4.356;2023-02-18T04:08:09;2.33;;;1.73;;
22034;SDS011;11181;51.002;4.356;2023-02-18T04:10:36;3.13;;;2.20;;
22034;SDS011;11181;51.002;4.356;2023-02-18T04:13:05;2.57;;;2.10;;
22034;SDS011;11181;51.002;4.356;2023-02-18T04:15:32;1.77;;;1.43;;
22034;SDS011;11181;51.002;4.356;2023-02-18T04:17:59;3.10;;;1.60;;
22034;SDS011;11181;51.002;4.356;2023-02-18T04:20:26;3.27;;;1.90;;
22034;SDS011;11181;51.002;4.356;2023-02-18T04:22:53;2.53;;;1.60;;
22034;SDS011;11181;51.002;4.356;2023-02-18T04:25:20;2.50;;;1.60;;
22034;SDS011;11181;51.002;4.356;2023-02-18T04:27:48;4.07;;;1.93;;
22034;SDS011;11181;51.002;4.356;2023-02-18T04:30:17;2.27;;;1.30;;
22034;SDS011;11181;51.002;4.356;2023-02-18T04:32:44;1.80;;;1.37;;
22034;SDS011;11181;51.002;4.356;2023-02-18T04:35:11;3.47;;;1.80;;
22034;SDS011;11181;51.002;4.356;2023-02-18T04:37:38;2.93;;;1.83;;
22034;SDS011;11181;51.002;4.356;2023-02-18T04:40:05;3.13;;;1.70;;
22034;SDS011;11181;51.002;4.356;2023-02-18T04:42:33;2.60;;;1.77;;
22034;SDS011;11181;51.002;4.356;2023-02-18T04:45:01;1.87;;;1.57;;
22034;SDS011;11181;51.002;4.356;2023-02-18T04:47:29;2.97;;;1.77;;
22034;SDS011;11181;51.002;4.356;2023-02-18T04:49:56;2.50;;;1.63;;
22034;SDS011;11181;51.002;4.356;2023-02-18T04:52:23;2.07;;;1.60;;
22034;SDS011;11181;51.002;4.356;2023-02-18T04:54:50;2.00;;;1.57;;
22034;SDS011;11181;51.002;4.356;2023-02-18T04:57:17;1.83;;;1.30;;
22034;SDS011;11181;51.002;4.356;2023-02-18T04:59:44;2.27;;;1.83;;
22034;SDS011;11181;51.002;4.356;2023-02-18T05:02:11;2.43;;;1.20;;
22034;SDS011;11181;51.002;4.356;2023-02-18T05:04:39;1.60;;;1.40;;
22034;SDS011;11181;51.002;4.356;2023-02-18T05:07:06;1.77;;;1.37;;
22034;SDS011;11181;51.002;4.356;2023-02-18T05:09:33;1.57;;;1.13;;
22034;SDS011;11181;51.002;4.356;2023-02-18T05:12:00;2.07;;;0.80;;
22034;SDS011;11181;51.002;4.356;2023-02-18T05:14:27;1.30;;;1.07;;
22034;SDS011;11181;51.002;4.356;2023-02-18T05:16:54;1.50;;;1.17;;
22034;SDS011;11181;51.002;4.356;2023-02-18T05:19:21;1.37;;;1.00;;
22034;SDS011;11181;51.002;4.356;2023-02-18T05:21:49;2.57;;;1.40;;
22034;SDS011;11181;51.002;4.356;2023-02-18T05:24:16;2.90;;;1.50;;
22034;SDS011;11181;51.002;4.356;2023-02-18T05:26:43;1.10;;;0.90;;
22034;SDS011;11181;51.002;4.356;2023-02-18T05:29:10;1.00;;;0.90;;
22034;SDS011;11181;51.002;4.356;2023-02-18T05:31:37;1.77;;;1.13;;
22034;SDS011;11181;51.002;4.356;2023-02-18T05:34:04;1.33;;;1.10;;
22034;SDS011;11181;51.002;4.356;2023-02-18T05:36:31;1.67;;;1.27;;
22034;SDS011;11181;51.002;4.356;2023-02-18T05:38:59;2.03;;;1.20;;
22034;SDS011;11181;51.002;4.356;2023-02-18T05:41:26;5.87;;;1.60;;
22034;SDS011;11181;51.002;4.356;2023-02-18T05:43:53;2.47;;;1.33;;
22034;SDS011;11181;51.002;4.356;2023-02-18T05:46:37;6.10;;;1.53;;
22034;SDS011;11181;51.002;4.356;2023-02-18T05:49:04;3.27;;;1.33;;
22034;SDS011;11181;51.002;4.356;2023-02-18T05:51:31;2.00;;;1.17;;
22034;SDS011;11181;51.002;4.356;2023-02-18T05:53:59;4.00;;;1.20;;
22034;SDS011;11181;51.002;4.356;2023-02-18T05:56:26;5.30;;;2.23;;
22034;SDS011;11181;51.002;4.356;2023-02-18T05:58:53;2.90;;;1.40;;
22034;SDS011;11181;51.002;4.356;2023-02-18T06:01:20;5.27;;;1.47;;
22034;SDS011;11181;51.002;4.356;2023-02-18T06:03:47;7.10;;;1.57;;
22034;SDS011;11181;51.002;4.356;2023-02-18T06:06:14;5.43;;;2.40;;
22034;SDS011;11181;51.002;4.356;2023-02-18T06:08:41;11.73;;;1.70;;
22034;SDS011;11181;51.002;4.356;2023-02-18T06:11:09;5.83;;;1.63;;
22034;SDS011;11181;51.002;4.356;2023-02-18T06:13:36;8.27;;;2.47;;
22034;SDS011;11181;51.002;4.356;2023-02-18T06:16:03;10.57;;;3.30;;
22034;SDS011;11181;51.002;4.356;2023-02-18T06:18:31;9.87;;;2.10;;
22034;SDS011;11181;51.002;4.356;2023-02-18T06:20:57;6.30;;;1.63;;
22034;SDS011;11181;51.002;4.356;2023-02-18T06:23:24;6.50;;;1.80;;
22034;SDS011;11181;51.002;4.356;2023-02-18T06:25:51;6.97;;;1.40;;
22034;SDS011;11181;51.002;4.356;2023-02-18T06:28:20;14.27;;;1.90;;
22034;SDS011;11181;51.002;4.356;2023-02-18T06:30:47;8.60;;;1.77;;
22034;SDS011;11181;51.002;4.356;2023-02-18T06:33:14;6.73;;;2.30;;
22034;SDS011;11181;51.002;4.356;2023-02-18T06:35:41;8.40;;;1.97;;
22034;SDS011;11181;51.002;4.356;2023-02-18T06:38:20;17.93;;;2.83;;
22034;SDS011;11181;51.002;4.356;2023-02-18T06:40:47;8.77;;;2.40;;
22034;SDS011;11181;51.002;4.356;2023-02-18T06:43:14;7.83;;;2.33;;
22034;SDS011;11181;51.002;4.356;2023-02-18T06:45:42;7.60;;;1.73;;
22034;SDS011;11181;51.002;4.356;2023-02-18T06:48:10;10.63;;;2.73;;
22034;SDS011;11181;51.002;4.356;2023-02-18T06:50:37;9.00;;;1.83;;
22034;SDS011;11181;51.002;4.356;2023-02-18T06:53:05;9.93;;;2.37;;
22034;SDS011;11181;51.002;4.356;2023-02-18T06:55:32;10.87;;;1.80;;
22034;SDS011;11181;51.002;4.356;2023-02-18T06:57:59;10.60;;;2.30;;
22034;SDS011;11181;51.002;4.356;2023-02-18T07:00:26;5.83;;;1.90;;
22034;SDS011;11181;51.002;4.356;2023-02-18T07:02:54;9.80;;;2.60;;
22034;SDS011;11181;51.002;4.356;2023-02-18T07:05:21;8.80;;;2.07;;
22034;SDS011;11181;51.002;4.356;2023-02-18T07:07:48;9.67;;;1.87;;
22034;SDS011;11181;51.002;4.356;2023-02-18T07:10:15;8.87;;;1.87;;
22034;SDS011;11181;51.002;4.356;2023-02-18T07:12:42;8.63;;;1.70;;
22034;SDS011;11181;51.002;4.356;2023-02-18T07:15:09;10.83;;;1.90;;
22034;SDS011;11181;51.002;4.356;2023-02-18T07:17:36;7.83;;;2.20;;
22034;SDS011;11181;51.002;4.356;2023-02-18T07:20:05;9.23;;;1.80;;
22034;SDS011;11181;51.002;4.356;2023-02-18T07:22:33;6.63;;;1.90;;
22034;SDS011;11181;51.002;4.356;2023-02-18T07:25:01;6.93;;;2.33;;
22034;SDS011;11181;51.002;4.356;2023-02-18T07:27:28;8.07;;;1.67;;
22034;SDS011;11181;51.002;4.356;2023-02-18T07:29:55;4.50;;;1.43;;
22034;SDS011;11181;51.002;4.356;2023-02-18T07:32:22;7.83;;;1.90;;
22034;SDS011;11181;51.002;4.356;2023-02-18T07:34:50;10.10;;;1.63;;
22034;SDS011;11181;51.002;4.356;2023-02-18T07:37:18;9.10;;;1.63;;
22034;SDS011;11181;51.002;4.356;2023-02-18T07:39:46;10.10;;;2.10;;
22034;SDS011;11181;51.002;4.356;2023-02-18T07:42:13;11.63;;;2.10;;
22034;SDS011;11181;51.002;4.356;2023-02-18T07:44:42;9.33;;;2.00;;
22034;SDS011;11181;51.002;4.356;2023-02-18T07:47:11;13.03;;;2.07;;
22034;SDS011;11181;51.002;4.356;2023-02-18T07:49:41;5.53;;;1.53;;
22034;SDS011;11181;51.002;4.356;2023-02-18T07:52:08;8.37;;;2.23;;
22034;SDS011;11181;51.002;4.356;2023-02-18T07:54:36;8.97;;;2.50;;
22034;SDS011;11181;51.002;4.356;2023-02-18T07:57:03;5.23;;;2.17;;
22034;SDS011;11181;51.002;4.356;2023-02-18T07:59:30;9.00;;;1.67;;
22034;SDS011;11181;51.002;4.356;2023-02-18T08:01:57;5.50;;;1.37;;
22034;SDS011;11181;51.002;4.356;2023-02-18T08:04:24;5.87;;;1.50;;
22034;SDS011;11181;51.002;4.356;2023-02-18T08:06:51;8.03;;;1.73;;
22034;SDS011;11181;51.002;4.356;2023-02-18T08:09:18;5.40;;;2.00;;
22034;SDS011;11181;51.002;4.356;2023-02-18T08:11:46;9.27;;;1.50;;
22034;SDS011;11181;51.002;4.356;2023-02-18T08:14:13;10.90;;;2.47;;
22034;SDS011;11181;51.002;4.356;2023-02-18T08:16:40;7.37;;;2.20;;
22034;SDS011;11181;51.002;4.356;2023-02-18T08:19:07;5.70;;;1.33;;
22034;SDS011;11181;51.002;4.356;2023-02-18T08:21:34;4.53;;;2.17;;
22034;SDS011;11181;51.002;4.356;2023-02-18T08:24:01;10.33;;;2.17;;
22034;SDS011;11181;51.002;4.356;2023-02-18T08:26:28;6.90;;;1.60;;
22034;SDS011;11181;51.002;4.356;2023-02-18T08:28:56;5.30;;;1.80;;
22034;SDS011;11181;51.002;4.356;2023-02-18T08:31:24;8.27;;;1.80;;
22034;SDS011;11181;51.002;4.356;2023-02-18T08:33:52;9.60;;;2.60;;
22034;SDS011;11181;51.002;4.356;2023-02-18T08:36:21;6.20;;;2.13;;
22034;SDS011;11181;51.002;4.356;2023-02-18T08:38:48;6.87;;;1.93;;
22034;SDS011;11181;51.002;4.356;2023-02-18T08:41:15;5.83;;;1.80;;
22034;SDS011;11181;51.002;4.356;2023-02-18T08:43:43;7.47;;;1.70;;
22034;SDS011;11181;51.002;4.356;2023-02-18T08:46:13;8.83;;;1.40;;
22034;SDS011;11181;51.002;4.356;2023-02-18T08:48:41;11.17;;;2.27;;
22034;SDS011;11181;51.002;4.356;2023-02-18T08:51:12;9.83;;;2.23;;
22034;SDS011;11181;51.002;4.356;2023-02-18T08:53:40;6.73;;;1.90;;
22034;SDS011;11181;51.002;4.356;2023-02-18T08:56:09;9.50;;;2.17;;
22034;SDS011;11181;51.002;4.356;2023-02-18T08:58:37;10.93;;;1.77;;
22034;SDS011;11181;51.002;4.356;2023-02-18T09:01:06;6.97;;;1.63;;
22034;SDS011;11181;51.002;4.356;2023-02-18T09:03:36;7.93;;;2.00;;
22034;SDS011;11181;51.002;4.356;2023-02-18T09:06:03;5.70;;;1.33;;
22034;SDS011;11181;51.002;4.356;2023-02-18T09:08:31;4.70;;;1.20;;
22034;SDS011;11181;51.002;4.356;2023-02-18T09:10:58;5.47;;;1.30;;
22034;SDS011;11181;51.002;4.356;2023-02-18T09:13:28;11.53;;;1.67;;
22034;SDS011;11181;51.002;4.356;2023-02-18T09:15:56;7.83;;;1.93;;
22034;SDS011;11181;51.002;4.356;2023-02-18T09:18:24;6.80;;;1.30;;
22034;SDS011;11181;51.002;4.356;2023-02-18T09:20:55;7.10;;;1.90;;
22034;SDS011;11181;51.002;4.356;2023-02-18T09:23:23;2.97;;;1.00;;
22034;SDS011;11181;51.002;4.356;2023-02-18T09:25:50;5.60;;;1.50;;
22034;SDS011;11181;51.002;4.356;2023-02-18T09:28:17;4.67;;;1.37;;
22034;SDS011;11181;51.002;4.356;2023-02-18T09:30:44;4.27;;;1.33;;
22034;SDS011;11181;51.002;4.356;2023-02-18T09:33:11;5.37;;;3.20;;
22034;SDS011;11181;51.002;4.356;2023-02-18T09:35:39;12.27;;;2.33;;
22034;SDS011;11181;51.002;4.356;2023-02-18T09:38:08;5.63;;;1.40;;
22034;SDS011;11181;51.002;4.356;2023-02-18T09:40:36;4.67;;;1.50;;
22034;SDS011;11181;51.002;4.356;2023-02-18T09:43:08;6.17;;;1.27;;
22034;SDS011;11181;51.002;4.356;2023-02-18T09:45:44;5.23;;;1.30;;
22034;SDS011;11181;51.002;4.356;2023-02-18T09:48:11;5.57;;;1.37;;
22034;SDS011;11181;51.002;4.356;2023-02-18T09:50:38;7.90;;;1.97;;
22034;SDS011;11181;51.002;4.356;2023-02-18T09:53:05;9.20;;;2.00;;
22034;SDS011;11181;51.002;4.356;2023-02-18T09:55:37;6.90;;;1.37;;
22034;SDS011;11181;51.002;4.356;2023-02-18T09:58:06;6.10;;;1.63;;
22034;SDS011;11181;51.002;4.356;2023-02-18T10:00:39;2.57;;;1.30;;
22034;SDS011;11181;51.002;4.356;2023-02-18T10:03:10;7.27;;;1.77;;
22034;SDS011;11181;51.002;4.356;2023-02-18T10:05:40;5.47;;;1.50;;
22034;SDS011;11181;51.002;4.356;2023-02-18T10:08:20;6.90;;;1.90;;
22034;SDS011;11181;51.002;4.356;2023-02-18T10:10:52;7.47;;;1.73;;
22034;SDS011;11181;51.002;4.356;2023-02-18T10:13:20;7.90;;;1.53;;
22034;SDS011;11181;51.002;4.356;2023-02-18T10:15:49;7.27;;;1.43;;
22034;SDS011;11181;51.002;4.356;2023-02-18T10:18:19;7.97;;;1.63;;
22034;SDS011;11181;51.002;4.356;2023-02-18T10:20:51;15.13;;;2.93;;
22034;SDS011;11181;51.002;4.356;2023-02-18T10:23:30;8.63;;;2.03;;
22034;SDS011;11181;51.002;4.356;2023-02-18T10:26:00;4.70;;;1.83;;
22034;SDS011;11181;51.002;4.356;2023-02-18T10:28:30;10.40;;;1.70;;
22034;SDS011;11181;51.002;4.356;2023-02-18T10:30:58;5.83;;;1.77;;
22034;SDS011;11181;51.002;4.356;2023-02-18T10:33:32;6.97;;;1.73;;
22034;SDS011;11181;51.002;4.356;2023-02-18T10:38:58;5.37;;;1.83;;
22034;SDS011;11181;51.002;4.356;2023-02-18T10:41:48;9.30;;;2.27;;
22034;SDS011;11181;51.002;4.356;2023-02-18T10:44:24;10.43;;;2.63;;
22034;SDS011;11181;51.002;4.356;2023-02-18T10:47:02;12.70;;;2.93;;
22034;SDS011;11181;51.002;4.356;2023-02-18T10:49:45;10.30;;;1.93;;
22034;SDS011;11181;51.002;4.356;2023-02-18T10:52:20;5.53;;;2.23;;
22034;SDS011;11181;51.002;4.356;2023-02-18T10:54:49;6.80;;;1.60;;
22034;SDS011;11181;51.002;4.356;2023-02-18T10:57:20;7.37;;;1.87;;
22034;SDS011;11181;51.002;4.356;2023-02-18T10:59:59;10.43;;;3.83;;
22034;SDS011;11181;51.002;4.356;2023-02-18T11:02:34;6.87;;;1.70;;
22034;SDS011;11181;51.002;4.356;2023-02-18T11:05:05;4.33;;;1.87;;
22034;SDS011;11181;51.002;4.356;2023-02-18T11:07:44;5.47;;;1.77;;
22034;SDS011;11181;51.002;4.356;2023-02-18T11:10:16;5.70;;;2.00;;
22034;SDS011;11181;51.002;4.356;2023-02-18T11:12:46;11.53;;;2.17;;
22034;SDS011;11181;51.002;4.356;2023-02-18T11:15:16;6.87;;;2.30;;
22034;SDS011;11181;51.002;4.356;2023-02-18T11:17:46;7.30;;;1.87;;
22034;SDS011;11181;51.002;4.356;2023-02-18T11:20:21;9.17;;;2.13;;
22034;SDS011;11181;51.002;4.356;2023-02-18T11:22:50;8.27;;;1.93;;
22034;SDS011;11181;51.002;4.356;2023-02-18T11:25:18;13.77;;;2.77;;
22034;SDS011;11181;51.002;4.356;2023-02-18T11:27:50;8.33;;;2.40;;
22034;SDS011;11181;51.002;4.356;2023-02-18T11:30:21;9.73;;;2.40;;
22034;SDS011;11181;51.002;4.356;2023-02-18T11:32:52;9.93;;;2.00;;
22034;SDS011;11181;51.002;4.356;2023-02-18T11:35:22;8.83;;;2.10;;
22034;SDS011;11181;51.002;4.356;2023-02-18T11:37:52;8.37;;;1.97;;
22034;SDS011;11181;51.002;4.356;2023-02-18T11:40:22;12.03;;;3.10;;
22034;SDS011;11181;51.002;4.356;2023-02-18T11:42:57;6.10;;;2.27;;
22034;SDS011;11181;51.002;4.356;2023-02-18T11:45:30;9.53;;;2.10;;
22034;SDS011;11181;51.002;4.356;2023-02-18T11:47:58;8.33;;;2.27;;
22034;SDS011;11181;51.002;4.356;2023-02-18T11:50:29;9.23;;;2.50;;
22034;SDS011;11181;51.002;4.356;2023-02-18T11:52:57;6.83;;;2.17;;
22034;SDS011;11181;51.002;4.356;2023-02-18T11:55:25;10.23;;;3.00;;
22034;SDS011;11181;51.002;4.356;2023-02-18T11:57:56;10.37;;;1.83;;
22034;SDS011;11181;51.002;4.356;2023-02-18T12:00:30;12.33;;;2.27;;
22034;SDS011;11181;51.002;4.356;2023-02-18T12:03:05;6.63;;;2.00;;
22034;SDS011;11181;51.002;4.356;2023-02-18T12:05:40;4.60;;;1.80;;
22034;SDS011;11181;51.002;4.356;2023-02-18T12:08:10;9.70;;;2.80;;
22034;SDS011;11181;51.002;4.356;2023-02-18T12:10:44;8.23;;;2.07;;
22034;SDS011;11181;51.002;4.356;2023-02-18T12:13:19;8.37;;;2.40;;
22034;SDS011;11181;51.002;4.356;2023-02-18T12:15:55;8.37;;;2.07;;
22034;SDS011;11181;51.002;4.356;2023-02-18T12:18:35;6.93;;;2.50;;
22034;SDS011;11181;51.002;4.356;2023-02-18T12:21:23;7.03;;;1.93;;
22034;SDS011;11181;51.002;4.356;2023-02-18T12:24:02;8.20;;;2.37;;
22034;SDS011;11181;51.002;4.356;2023-02-18T12:26:39;10.10;;;2.30;;
22034;SDS011;11181;51.002;4.356;2023-02-18T12:29:27;4.77;;;2.00;;
22034;SDS011;11181;51.002;4.356;2023-02-18T12:32:18;6.30;;;1.83;;
22034;SDS011;11181;51.002;4.356;2023-02-18T12:35:01;5.70;;;1.47;;
22034;SDS011;11181;51.002;4.356;2023-02-18T12:37:51;5.17;;;2.70;;
22034;SDS011;11181;51.002;4.356;2023-02-18T12:40:36;6.20;;;1.60;;
22034;SDS011;11181;51.002;4.356;2023-02-18T12:43:14;11.07;;;2.90;;
22034;SDS011;11181;51.002;4.356;2023-02-18T12:45:54;12.17;;;3.30;;
22034;SDS011;11181;51.002;4.356;2023-02-18T12:51:39;7.93;;;2.00;;
22034;SDS011;11181;51.002;4.356;2023-02-18T12:54:21;4.73;;;1.80;;
22034;SDS011;11181;51.002;4.356;2023-02-18T12:57:18;5.37;;;2.33;;
22034;SDS011;11181;51.002;4.356;2023-02-18T13:00:11;8.43;;;2.30;;
22034;SDS011;11181;51.002;4.356;2023-02-18T13:03:18;8.93;;;2.53;;
22034;SDS011;11181;51.002;4.356;2023-02-18T13:06:09;9.63;;;2.07;;
22034;SDS011;11181;51.002;4.356;2023-02-18T13:08:49;8.40;;;2.57;;
22034;SDS011;11181;51.002;4.356;2023-02-18T13:11:25;9.67;;;1.93;;
22034;SDS011;11181;51.002;4.356;2023-02-18T13:14:03;7.20;;;2.70;;
22034;SDS011;11181;51.002;4.356;2023-02-18T13:16:37;8.13;;;1.80;;
22034;SDS011;11181;51.002;4.356;2023-02-18T13:19:11;8.33;;;1.80;;
22034;SDS011;11181;51.002;4.356;2023-02-18T13:21:43;6.90;;;2.23;;
22034;SDS011;11181;51.002;4.356;2023-02-18T13:24:14;9.07;;;2.63;;
22034;SDS011;11181;51.002;4.356;2023-02-18T13:26:50;5.20;;;2.27;;
22034;SDS011;11181;51.002;4.356;2023-02-18T13:29:23;8.50;;;2.67;;
22034;SDS011;11181;51.002;4.356;2023-02-18T13:31:57;8.47;;;2.13;;
22034;SDS011;11181;51.002;4.356;2023-02-18T13:34:34;13.90;;;2.13;;
22034;SDS011;11181;51.002;4.356;2023-02-18T13:37:09;7.63;;;2.03;;
22034;SDS011;11181;51.002;4.356;2023-02-18T13:39:45;5.90;;;2.00;;
22034;SDS011;11181;51.002;4.356;2023-02-18T13:42:24;10.77;;;3.33;;
22034;SDS011;11181;51.002;4.356;2023-02-18T13:47:51;5.03;;;2.30;;
22034;SDS011;11181;51.002;4.356;2023-02-18T13:50:30;8.47;;;3.17;;
22034;SDS011;11181;51.002;4.356;2023-02-18T13:53:20;4.87;;;2.00;;
22034;SDS011;11181;51.002;4.356;2023-02-18T13:55:50;7.23;;;2.50;;
22034;SDS011;11181;51.002;4.356;2023-02-18T13:58:23;9.00;;;2.80;;
22034;SDS011;11181;51.002;4.356;2023-02-18T14:00:55;4.77;;;2.10;;
22034;SDS011;11181;51.002;4.356;2023-02-18T14:03:31;8.80;;;2.80;;
22034;SDS011;11181;51.002;4.356;2023-02-18T14:06:17;9.80;;;3.27;;
22034;SDS011;11181;51.002;4.356;2023-02-18T14:08:46;6.93;;;2.50;;
22034;SDS011;11181;51.002;4.356;2023-02-18T14:11:32;12.83;;;3.63;;
22034;SDS011;11181;51.002;4.356;2023-02-18T14:17:12;10.97;;;4.07;;
22034;SDS011;11181;51.002;4.356;2023-02-18T14:19:54;8.53;;;3.63;;
22034;SDS011;11181;51.002;4.356;2023-02-18T14:22:31;9.47;;;2.97;;
22034;SDS011;11181;51.002;4.356;2023-02-18T14:24:59;9.97;;;3.33;;
22034;SDS011;11181;51.002;4.356;2023-02-18T14:27:28;20.10;;;3.77;;
22034;SDS011;11181;51.002;4.356;2023-02-18T14:29:57;10.20;;;3.70;;
22034;SDS011;11181;51.002;4.356;2023-02-18T14:32:29;8.07;;;3.13;;
22034;SDS011;11181;51.002;4.356;2023-02-18T14:34:59;9.83;;;2.87;;
22034;SDS011;11181;51.002;4.356;2023-02-18T14:37:42;9.13;;;3.33;;
22034;SDS011;11181;51.002;4.356;2023-02-18T14:40:47;9.97;;;3.27;;
22034;SDS011;11181;51.002;4.356;2023-02-18T14:43:30;9.70;;;3.33;;
22034;SDS011;11181;51.002;4.356;2023-02-18T14:46:09;3.77;;;3.00;;
22034;SDS011;11181;51.002;4.356;2023-02-18T14:48:49;8.43;;;3.63;;
22034;SDS011;11181;51.002;4.356;2023-02-18T14:51:27;10.70;;;3.73;;
22034;SDS011;11181;51.002;4.356;2023-02-18T14:53:58;16.57;;;3.37;;
22034;SDS011;11181;51.002;4.356;2023-02-18T14:56:30;8.77;;;2.73;;
22034;SDS011;11181;51.002;4.356;2023-02-18T14:59:03;10.80;;;4.13;;
22034;SDS011;11181;51.002;4.356;2023-02-18T15:01:32;7.50;;;3.20;;
22034;SDS011;11181;51.002;4.356;2023-02-18T15:04:00;8.37;;;3.30;;
22034;SDS011;11181;51.002;4.356;2023-02-18T15:06:29;7.33;;;3.10;;
22034;SDS011;11181;51.002;4.356;2023-02-18T15:09:00;9.43;;;3.20;;
22034;SDS011;11181;51.002;4.356;2023-02-18T15:11:38;8.07;;;4.73;;
22034;SDS011;11181;51.002;4.356;2023-02-18T15:14:08;7.80;;;3.63;;
22034;SDS011;11181;51.002;4.356;2023-02-18T15:16:41;10.20;;;3.40;;
22034;SDS011;11181;51.002;4.356;2023-02-18T15:19:11;7.07;;;4.00;;
22034;SDS011;11181;51.002;4.356;2023-02-18T15:21:41;8.03;;;3.70;;
22034;SDS011;11181;51.002;4.356;2023-02-18T15:24:14;7.10;;;3.67;;
22034;SDS011;11181;51.002;4.356;2023-02-18T15:26:48;10.13;;;4.03;;
22034;SDS011;11181;51.002;4.356;2023-02-18T15:29:17;9.20;;;3.83;;